Time;durP1;ratioP1;P1;durP2;ratioP2;P2;SDS_P1;SDS_P2;PMS_P1;PMS_P2;Temp;Humidity;BMP_temperature;BMP_pressure;BME280_temperature;BME280_humidity;BME280_pressure;Samples;Min_cycle;Max_cycle;Signal;HPM_P1;HPM_P2
2021/04/04 00:00:11;;;;;;;10.20;4.47;;;;;;;5.56;65.89;100516.25;1770011;79;22178;-70
2021/04/04 00:02:37;;;;;;;11.57;5.50;;;;;;;5.65;66.10;100511.64;1763144;79;21196;-69
2021/04/04 00:05:05;;;;;;;14.03;5.43;;;;;;;5.70;65.58;100513.91;1771940;79;21643;-69
2021/04/04 00:07:31;;;;;;;13.15;5.70;;;;;;;5.82;65.28;100518.72;1766389;79;21211;-69
2021/04/04 00:09:56;;;;;;;16.35;6.10;;;;;;;5.84;65.14;100520.73;1760839;79;26310;-69
2021/04/04 00:12:22;;;;;;;13.17;5.13;;;;;;;5.74;65.23;100517.50;1773471;80;21998;-69
2021/04/04 00:14:48;;;;;;;15.23;6.23;;;;;;;5.82;65.13;100516.09;1749769;80;22600;-69
2021/04/04 00:17:14;;;;;;;15.13;6.33;;;;;;;5.73;65.10;100517.16;1754661;80;21648;-69
2021/04/04 00:19:39;;;;;;;14.58;6.28;;;;;;;5.82;65.09;100519.53;1767540;80;27627;-69
2021/04/04 00:22:05;;;;;;;13.87;5.90;;;;;;;5.67;65.39;100520.23;1748931;80;27611;-69
2021/04/04 00:24:31;;;;;;;14.20;5.37;;;;;;;5.43;66.33;100520.27;1757208;80;21576;-69
2021/04/04 00:26:57;;;;;;;13.37;5.67;;;;;;;5.30;66.78;100529.97;1765684;80;22598;-69
2021/04/04 00:29:23;;;;;;;21.67;5.83;;;;;;;5.36;66.45;100519.90;1716335;80;20973;-69
2021/04/04 00:31:49;;;;;;;18.07;6.28;;;;;;;5.34;65.98;100490.34;1747759;79;21948;-69
2021/04/04 00:34:17;;;;;;;12.63;5.80;;;;;;;5.45;66.36;100525.39;1758236;80;26194;-69
2021/04/04 00:36:42;;;;;;;15.58;6.08;;;;;;;5.39;66.40;100522.30;1753595;80;21232;-69
2021/04/04 00:39:10;;;;;;;14.33;5.50;;;;;;;5.42;66.34;100517.77;1765637;80;22001;-69
2021/04/04 00:41:36;;;;;;;14.60;5.37;;;;;;;5.49;65.72;100508.52;1777376;80;21211;-69
2021/04/04 00:44:03;;;;;;;12.07;5.50;;;;;;;5.48;65.84;100517.31;1748826;80;27791;-67
2021/04/04 00:46:29;;;;;;;11.10;4.83;;;;;;;5.41;66.20;100516.94;1745430;80;21610;-70
2021/04/04 00:48:54;;;;;;;19.43;5.73;;;;;;;5.27;66.76;100521.89;1764743;80;21533;-69
2021/04/04 00:51:20;;;;;;;17.73;6.23;;;;;;;5.29;66.48;100521.29;1760959;80;23614;-68
2021/04/04 00:53:46;;;;;;;15.40;6.10;;;;;;;5.38;66.04;100523.23;1746391;80;20942;-68
2021/04/04 00:56:12;;;;;;;16.73;6.37;;;;;;;5.44;66.02;100523.72;1769402;80;28026;-68
2021/04/04 00:58:39;;;;;;;16.07;6.40;;;;;;;5.39;66.08;100510.96;1757217;80;21645;-68
2021/04/04 01:01:06;;;;;;;16.75;5.92;;;;;;;5.26;66.75;100515.45;1774975;80;21568;-69
2021/04/04 01:03:32;;;;;;;15.83;6.60;;;;;;;5.35;66.05;100514.30;1754766;80;21569;-69
2021/04/04 01:06:02;;;;;;;13.72;6.20;;;;;;;5.26;66.61;100524.13;1752962;79;21175;-68
2021/04/04 01:08:25;;;;;;;;;;;;;;;5.34;66.27;100527.02;1762006;80;21204;-69
2021/04/04 01:10:51;;;;;;;14.07;6.15;;;;;;;5.11;67.29;100523.94;1745904;80;20262;-69
2021/04/04 01:13:21;;;;;;;13.53;6.03;;;;;;;5.21;67.02;100516.61;1760489;79;22153;-68
2021/04/04 01:16:01;;;;;;;18.17;7.15;;;;;;;5.11;67.45;100518.25;1770632;80;21200;-69
2021/04/04 01:18:44;;;;;;;15.88;6.72;;;;;;;5.15;67.34;100521.47;1750675;80;21216;-68
2021/04/04 01:21:21;;;;;;;16.02;6.65;;;;;;;5.04;67.54;100528.31;1751732;80;21223;-68
2021/04/04 01:24:06;;;;;;;13.90;6.80;;;;;;;5.13;67.55;100528.61;1749791;80;21637;-68
2021/04/04 01:26:48;;;;;;;16.05;7.03;;;;;;;5.23;67.63;100529.59;1754977;80;21277;-68
2021/04/04 01:29:15;;;;;;;16.57;7.42;;;;;;;4.99;67.98;100530.44;1755407;80;21643;-67
2021/04/04 01:31:42;;;;;;;14.38;6.20;;;;;;;4.73;69.02;100524.93;1755507;79;21625;-67
2021/04/04 01:34:08;;;;;;;18.02;7.10;;;;;;;4.95;68.33;100522.43;1751811;80;21188;-67
2021/04/04 01:36:37;;;;;;;14.60;6.47;;;;;;;4.87;68.40;100524.77;1736011;80;38344;-68
2021/04/04 01:39:09;;;;;;;16.93;6.62;;;;;;;4.89;68.17;100520.25;1763570;80;21907;-67
2021/04/04 01:41:41;;;;;;;14.47;6.58;;;;;;;4.89;68.29;100529.41;1754005;80;21121;-67
2021/04/04 01:44:13;;;;;;;13.03;6.28;;;;;;;4.94;68.36;100522.09;1762321;80;21591;-67
2021/04/04 01:46:40;;;;;;;16.15;6.05;;;;;;;4.88;68.55;100519.91;1769217;80;21728;-68
2021/04/04 01:49:06;;;;;;;14.40;5.97;;;;;;;4.82;68.72;100517.73;1756911;80;21207;-68
2021/04/04 01:51:31;;;;;;;14.93;5.00;;;;;;;4.77;69.00;100521.13;1756611;80;21209;-68
2021/04/04 01:53:59;;;;;;;11.27;4.10;;;;;;;4.45;69.49;100516.41;1756620;79;23597;-68
2021/04/04 01:56:24;;;;;;;10.88;4.15;;;;;;;4.39;69.33;100531.22;1745178;80;21132;-68
2021/04/04 01:58:50;;;;;;;11.77;4.10;;;;;;;4.36;69.43;100522.28;1722251;80;24204;-68
2021/04/04 02:01:16;;;;;;;12.27;4.30;;;;;;;4.38;69.23;100519.94;1753112;80;24306;-68
2021/04/04 02:03:42;;;;;;;12.23;4.00;;;;;;;4.42;69.31;100521.86;1753705;80;21245;-69
2021/04/04 02:06:10;;;;;;;10.37;4.20;;;;;;;4.35;69.44;100530.61;1748723;80;21030;-68
2021/04/04 02:08:36;;;;;;;10.72;4.12;;;;;;;4.37;69.48;100525.28;1765394;80;21184;-68
2021/04/04 02:11:02;;;;;;;12.47;4.00;;;;;;;4.26;69.95;100532.08;1759006;79;25817;-68
2021/04/04 02:13:28;;;;;;;8.08;4.05;;;;;;;4.21;69.93;100523.72;1769714;79;21229;-68
2021/04/04 02:16:03;;;;;;;14.17;4.20;;;;;;;4.30;69.91;100536.16;1769583;79;21229;-68
2021/04/04 02:18:28;;;;;;;11.30;4.10;;;;;;;4.22;70.23;100535.83;1760522;79;21254;-68
2021/04/04 02:20:54;;;;;;;10.40;3.93;;;;;;;4.38;69.76;100532.16;1764321;79;21072;-69
2021/04/04 02:23:21;;;;;;;10.13;3.90;;;;;;;4.39;69.65;100537.28;1770649;79;21518;-69
2021/04/04 02:25:47;;;;;;;12.18;4.22;;;;;;;4.31;70.04;100532.58;1769960;79;21203;-68
2021/04/04 02:28:13;;;;;;;11.47;4.20;;;;;;;4.23;70.18;100520.52;1767839;79;21956;-68
2021/04/04 02:30:39;;;;;;;12.67;4.60;;;;;;;4.42;69.94;100534.94;1764118;79;21056;-68
2021/04/04 02:33:10;;;;;;;10.93;4.27;;;;;;;4.37;70.24;100535.73;1775412;79;21649;-68
2021/04/04 02:35:40;;;;;;;12.40;4.72;;;;;;;4.49;69.82;100537.50;1765971;79;21220;-68
2021/04/04 02:38:11;;;;;;;14.43;4.95;;;;;;;4.37;70.69;100538.34;1774543;79;21189;-68
2021/04/04 02:40:37;;;;;;;9.55;3.62;;;;;;;4.38;70.85;100534.77;1774482;79;22005;-68
2021/04/04 02:43:03;;;;;;;11.68;4.17;;;;;;;4.53;70.20;100536.31;1766180;79;21601;-69
2021/04/04 02:45:29;;;;;;;11.70;4.40;;;;;;;4.65;70.08;100536.77;1772250;79;21900;-68
2021/04/04 02:48:04;;;;;;;13.83;4.90;;;;;;;4.78;69.69;100538.52;1775221;79;26780;-69
2021/04/04 02:50:30;;;;;;;14.23;4.60;;;;;;;4.73;69.89;100536.70;1729436;79;22109;-68
2021/04/04 02:52:59;;;;;;;11.60;4.22;;;;;;;4.81;69.73;100531.75;1755667;79;21198;-68
2021/04/04 02:55:27;;;;;;;12.40;4.45;;;;;;;4.84;69.71;100543.31;1724152;79;21209;-69
2021/04/04 02:57:53;;;;;;;12.00;5.70;;;;;;;4.98;69.08;100545.77;1766855;79;21207;-68
2021/04/04 03:00:19;;;;;;;11.73;6.17;;;;;;;5.11;68.54;100551.42;1770725;79;25350;-69
2021/04/04 03:02:45;;;;;;;12.33;6.22;;;;;;;5.18;68.42;100543.50;1766378;79;21161;-67
2021/04/04 03:05:11;;;;;;;18.93;7.13;;;;;;;5.24;68.16;100536.51;1777441;79;21354;-68
2021/04/04 03:07:41;;;;;;;18.67;7.53;;;;;;;5.19;68.38;100547.80;1765306;79;21239;-68
2021/04/04 03:10:08;;;;;;;15.23;7.05;;;;;;;5.18;68.48;100543.50;1773163;79;21233;-67
2021/04/04 03:12:34;;;;;;;12.65;6.28;;;;;;;4.98;68.81;100548.38;1730463;80;21700;-67
2021/04/04 03:15:01;;;;;;;14.70;6.55;;;;;;;5.16;68.55;100549.33;1756220;80;21187;-68
2021/04/04 03:17:28;;;;;;;11.22;5.45;;;;;;;5.14;68.29;100547.28;1778297;80;22303;-68
2021/04/04 03:19:54;;;;;;;14.68;6.17;;;;;;;5.28;67.90;100551.03;1768952;79;21201;-68
2021/04/04 03:22:20;;;;;;;12.17;5.40;;;;;;;5.26;67.93;100547.70;1757721;80;21161;-69
2021/04/04 03:24:46;;;;;;;14.28;5.28;;;;;;;5.22;68.02;100554.12;1722202;80;21184;-69
2021/04/04 03:27:12;;;;;;;10.80;5.43;;;;;;;5.34;67.56;100544.52;1745581;80;25697;-69
2021/04/04 03:29:37;;;;;;;13.93;4.90;;;;;;;5.18;67.97;100555.28;1746968;80;21099;-69
2021/04/04 03:32:03;;;;;;;15.43;6.00;;;;;;;5.24;67.75;100557.45;1686865;80;23536;-69
2021/04/04 03:34:29;;;;;;;11.47;5.50;;;;;;;5.28;67.61;100561.50;1735159;80;22254;-68
2021/04/04 03:36:55;;;;;;;11.03;5.07;;;;;;;5.23;67.93;100559.70;1726113;80;26021;-67
2021/04/04 03:39:25;;;;;;;13.62;5.00;;;;;;;5.16;68.03;100560.62;1752729;80;27219;-68
2021/04/04 03:41:51;;;;;;;10.32;4.40;;;;;;;5.26;67.88;100563.41;1755225;80;22112;-69
2021/04/04 03:44:21;;;;;;;11.43;4.33;;;;;;;5.37;67.53;100564.77;1749126;79;21165;-69
2021/04/04 03:46:47;;;;;;;10.45;4.22;;;;;;;5.38;67.33;100562.52;1751077;80;21615;-68
2021/04/04 03:49:13;;;;;;;12.00;5.30;;;;;;;5.48;67.03;100560.05;1765649;80;21229;-70
2021/04/04 03:51:38;;;;;;;11.80;5.40;;;;;;;5.25;67.87;100564.38;1766998;80;23254;-68
2021/04/04 03:54:04;;;;;;;11.37;5.17;;;;;;;5.31;68.10;100563.90;1753364;80;21355;-69
2021/04/04 03:56:33;;;;;;;11.70;4.80;;;;;;;5.19;68.20;100570.05;1761225;80;21255;-69
2021/04/04 03:59:02;;;;;;;13.88;4.83;;;;;;;5.35;67.84;100573.21;1716194;80;21264;-69
2021/04/04 04:01:28;;;;;;;11.65;5.10;;;;;;;5.37;68.04;100573.92;1761682;80;21231;-68
2021/04/04 04:03:54;;;;;;;15.30;6.57;;;;;;;5.40;67.90;100578.94;1743128;80;25618;-69
2021/04/04 04:06:19;;;;;;;17.90;7.73;;;;;;;5.52;67.29;100573.77;1755176;80;22189;-69
2021/04/04 04:08:45;;;;;;;14.83;8.33;;;;;;;5.54;67.06;100573.17;1770023;80;22604;-69
2021/04/04 04:11:11;;;;;;;20.17;9.90;;;;;;;5.46;67.21;100575.05;1755879;79;21035;-68
2021/04/04 04:13:37;;;;;;;22.23;10.40;;;;;;;5.34;67.56;100584.62;1771022;79;28263;-69
2021/04/04 04:16:03;;;;;;;15.80;9.10;;;;;;;5.10;68.23;100592.48;1769805;79;25245;-69
2021/04/04 04:18:29;;;;;;;18.25;10.28;;;;;;;5.15;68.32;100580.38;1766232;79;21746;-68
2021/04/04 04:20:55;;;;;;;20.15;11.75;;;;;;;5.10;68.33;100579.87;1767816;79;21648;-69
2021/04/04 04:23:21;;;;;;;23.57;12.47;;;;;;;5.06;68.78;100579.73;1762432;79;21014;-68
2021/04/04 04:25:47;;;;;;;19.23;12.00;;;;;;;5.20;68.46;100582.18;1781509;79;24839;-68
2021/04/04 04:28:13;;;;;;;19.67;12.47;;;;;;;5.27;68.19;100578.19;1773887;79;24155;-68
2021/04/04 04:30:38;;;;;;;20.20;11.43;;;;;;;5.25;68.26;100580.09;1765091;79;21116;-67
2021/04/04 04:33:08;;;;;;;18.87;10.20;;;;;;;5.26;68.16;100579.60;1767828;79;21397;-68
2021/04/04 04:35:34;;;;;;;20.88;12.33;;;;;;;5.22;68.09;100586.85;1772927;79;22448;-68
2021/04/04 04:38:02;;;;;;;16.80;10.33;;;;;;;5.28;68.04;100577.22;1777184;79;24894;-68
2021/04/04 04:40:28;;;;;;;20.40;11.15;;;;;;;5.16;68.46;100572.89;1735692;79;21117;-68
2021/04/04 04:42:55;;;;;;;23.57;12.93;;;;;;;5.26;68.24;100567.34;1775610;79;21370;-68
2021/04/04 04:45:34;;;;;;;19.65;11.28;;;;;;;5.32;68.03;100561.66;1768139;79;21706;-68
2021/04/04 04:47:59;;;;;;;20.12;12.47;;;;;;;5.33;67.76;100559.41;1782240;79;21204;-68
2021/04/04 04:50:25;;;;;;;24.23;13.90;;;;;;;5.34;67.73;100554.99;1719677;79;27282;-69
2021/04/04 04:52:51;;;;;;;23.73;13.57;;;;;;;5.22;68.19;100559.36;1765718;79;24216;-68
2021/04/04 04:55:20;;;;;;;22.63;15.10;;;;;;;5.07;68.65;100562.60;1774130;79;21199;-68
2021/04/04 04:57:46;;;;;;;24.92;13.45;;;;;;;5.03;68.97;100563.30;1784458;79;21282;-67
2021/04/04 05:00:14;;;;;;;24.07;12.25;;;;;;;5.15;68.63;100575.14;1778787;79;21141;-68
2021/04/04 05:02:40;;;;;;;21.57;10.58;;;;;;;5.21;68.28;100574.70;1777588;79;21581;-69
2021/04/04 05:05:08;;;;;;;13.80;6.50;;;;;;;4.90;69.36;100579.51;1732574;79;21187;-68
2021/04/04 05:07:34;;;;;;;13.98;5.37;;;;;;;4.71;70.25;100576.50;1759774;79;21173;-68
2021/04/04 05:10:01;;;;;;;14.83;5.35;;;;;;;4.65;70.33;100582.55;1761736;79;21227;-68
2021/04/04 05:12:27;;;;;;;12.10;5.00;;;;;;;4.40;71.30;100587.34;1771317;79;21198;-68
2021/04/04 05:14:53;;;;;;;11.53;4.57;;;;;;;4.24;71.90;100594.09;1767945;79;25398;-67
2021/04/04 05:17:19;;;;;;;10.90;4.80;;;;;;;4.42;71.73;100585.92;1772252;80;21249;-69
2021/04/04 05:19:45;;;;;;;11.17;4.83;;;;;;;4.45;71.58;100587.02;1762067;80;21256;-68
2021/04/04 05:22:11;;;;;;;12.03;4.30;;;;;;;4.52;71.40;100581.71;1743205;80;21777;-68
2021/04/04 05:24:37;;;;;;;11.60;4.83;;;;;;;4.56;71.38;100587.11;1753801;80;21042;-68
2021/04/04 05:27:03;;;;;;;8.75;4.37;;;;;;;4.57;71.36;100583.56;1753803;80;21248;-68
2021/04/04 05:29:29;;;;;;;9.48;4.33;;;;;;;4.50;71.64;100583.61;1758701;80;21582;-68
2021/04/04 05:31:56;;;;;;;11.13;4.27;;;;;;;4.70;71.11;100589.24;1747706;80;21606;-67
2021/04/04 05:34:27;;;;;;;11.33;3.98;;;;;;;4.65;71.01;100582.55;1760386;79;21182;-68
2021/04/04 05:37:03;;;;;;;14.13;5.15;;;;;;;4.76;70.69;100589.64;1759279;79;21212;-68
2021/04/04 05:39:32;;;;;;;11.08;4.30;;;;;;;4.65;70.71;100593.00;1751415;80;21181;-69
2021/04/04 05:42:02;;;;;;;8.83;4.28;;;;;;;4.46;71.55;100599.16;1775138;80;21203;-69
2021/04/04 05:44:43;;;;;;;13.25;4.50;;;;;;;4.41;71.54;100604.71;1766844;80;21150;-68
2021/04/04 05:47:48;;;;;;;8.75;4.20;;;;;;;4.38;71.69;100609.29;1766778;80;21238;-68
2021/04/04 05:50:27;;;;;;;9.45;4.20;;;;;;;4.20;72.26;100605.69;1757712;80;21184;-68
2021/04/04 05:53:06;;;;;;;10.58;4.70;;;;;;;4.53;71.38;100606.94;1757474;80;21185;-67
2021/04/04 05:55:57;;;;;;;9.55;4.40;;;;;;;4.50;71.48;100605.84;1760899;80;21473;-68
2021/04/04 05:58:37;;;;;;;10.55;4.12;;;;;;;4.76;70.77;100616.28;1748394;80;21191;-70
2021/04/04 06:01:15;;;;;;;11.03;4.08;;;;;;;4.83;70.18;100609.66;1760813;80;21219;-68
2021/04/04 06:03:50;;;;;;;11.93;4.78;;;;;;;4.83;70.05;100603.12;1755819;80;21265;-68
2021/04/04 06:06:30;;;;;;;11.97;5.80;;;;;;;4.60;71.24;100616.04;1733229;80;21253;-69
2021/04/04 06:09:35;;;;;;;15.13;6.00;;;;;;;4.42;72.23;100613.37;1674422;84;21292;-68
2021/04/04 06:12:25;;;;;;;15.05;6.72;;;;;;;4.61;71.66;100607.23;1743782;80;21227;-69
2021/04/04 06:15:02;;;;;;;13.58;6.35;;;;;;;4.29;73.02;100620.75;1742782;81;21203;-69
2021/04/04 06:17:56;;;;;;;13.10;6.10;;;;;;;4.49;72.36;100614.64;1746906;81;21207;-68
2021/04/04 06:21:01;;;;;;;16.42;6.95;;;;;;;4.39;72.60;100614.89;1738984;81;21254;-69
2021/04/04 06:24:05;;;;;;;20.60;7.42;;;;;;;4.15;73.81;100626.08;1740055;81;21167;-67
2021/04/04 06:26:43;;;;;;;16.20;7.17;;;;;;;4.18;73.84;100625.88;1739237;81;21606;-68
2021/04/04 06:29:29;;;;;;;;;;;;;;;4.30;73.62;100620.27;1752281;81;21211;-67
2021/04/04 06:32:09;;;;;;;15.05;7.12;;;;;;;4.44;73.57;100625.87;1735088;81;20606;-67
2021/04/04 06:34:41;;;;;;;17.23;7.37;;;;;;;4.31;73.88;100630.63;1679960;81;21199;-68
2021/04/04 06:37:35;;;;;;;24.12;9.18;;;;;;;4.46;73.21;100626.14;1737447;81;21227;-69
2021/04/04 06:40:09;;;;;;;16.25;7.53;;;;;;;4.43;74.08;100629.45;1742315;81;21254;-69
2021/04/04 06:42:55;;;;;;;14.40;7.05;;;;;;;4.35;74.04;100626.49;1738204;81;21234;-67
2021/04/04 06:45:50;;;;;;;16.50;7.50;;;;;;;4.38;74.02;100628.90;1753159;81;21406;-67
2021/04/04 06:48:37;;;;;;;19.73;7.45;;;;;;;4.36;73.96;100633.41;1744998;81;21239;-68
2021/04/04 06:51:28;;;;;;;14.63;7.23;;;;;;;4.29;74.04;100628.59;1745552;81;21203;-67
2021/04/04 06:54:13;;;;;;;17.27;8.18;;;;;;;4.45;73.84;100635.40;1741819;81;21333;-67
2021/04/04 06:56:57;;;;;;;14.40;7.25;;;;;;;4.57;73.36;100630.64;1740916;81;21203;-68
2021/04/04 06:59:51;;;;;;;18.10;6.83;;;;;;;4.51;73.50;100631.05;1738787;81;21231;-68
2021/04/04 07:02:18;;;;;;;15.05;6.85;;;;;;;4.71;72.65;100631.45;1738515;81;21699;-68
2021/04/04 07:04:54;;;;;;;;;;;;;;;4.52;72.34;100644.48;1742252;81;21215;-68
2021/04/04 07:07:48;;;;;;;13.98;5.50;;;;;;;4.46;72.39;100630.55;1743585;81;21171;-67
2021/04/04 07:10:48;;;;;;;12.23;5.55;;;;;;;4.68;71.93;100623.36;1740602;81;21223;-67
2021/04/04 07:13:36;;;;;;;13.03;6.45;;;;;;;4.80;71.43;100636.04;1742232;81;21184;-68
2021/04/04 07:16:32;;;;;;;11.40;6.30;;;;;;;4.60;71.83;100643.95;1743505;81;21185;-68
2021/04/04 07:19:37;;;;;;;8.20;5.20;;;;;;;4.58;71.92;100644.55;1725703;82;25558;-68
2021/04/04 07:22:38;;;;;;;14.10;6.60;;;;;;;4.50;71.92;100651.60;1742521;82;21241;-68
2021/04/04 07:25:21;;;;;;;14.73;6.67;;;;;;;4.58;71.82;100643.23;1744363;82;21241;-68
2021/04/04 07:28:12;;;;;;;13.68;6.97;;;;;;;4.66;71.99;100650.94;1720487;82;21229;-68
2021/04/04 07:30:43;;;;;;;16.32;7.20;;;;;;;4.70;71.88;100655.95;1754859;80;21211;-69
2021/04/04 07:33:26;;;;;;;12.40;6.10;;;;;;;4.78;71.60;100653.63;1722905;82;21191;-68
2021/04/04 07:36:21;;;;;;;11.45;5.95;;;;;;;4.86;71.31;100650.00;1767071;80;21733;-67
2021/04/04 07:38:58;;;;;;;13.85;6.45;;;;;;;5.02;70.66;100658.47;1720436;82;21195;-68
2021/04/04 07:41:50;;;;;;;11.73;5.85;;;;;;;4.99;70.29;100657.37;1768460;80;21283;-68
2021/04/04 07:44:45;;;;;;;13.68;6.03;;;;;;;4.91;69.90;100662.31;1776376;80;21675;-67
2021/04/04 07:47:41;;;;;;;12.50;5.78;;;;;;;5.05;69.95;100663.97;1719270;82;21275;-67
2021/04/04 07:50:10;;;;;;;10.90;4.87;;;;;;;5.25;69.04;100668.25;1747963;79;21669;-68
2021/04/04 07:52:40;;;;;;;8.63;4.42;;;;;;;5.32;68.09;100669.02;1771528;80;21203;-67
2021/04/04 07:55:14;;;;;;;10.78;5.20;;;;;;;5.26;67.83;100671.25;1721828;82;21224;-68
2021/04/04 07:58:25;;;;;;;9.60;5.20;;;;;;;5.36;67.69;100665.25;1766793;80;21259;-67
2021/04/04 08:01:01;;;;;;;11.15;5.92;;;;;;;5.47;67.51;100667.55;1722537;82;21203;-67
2021/04/04 08:03:35;;;;;;;11.22;5.40;;;;;;;5.53;67.97;100659.25;1761705;80;21658;-67
2021/04/04 08:06:08;;;;;;;13.25;5.45;;;;;;;5.72;67.41;100662.22;1769173;78;21238;-68
2021/04/04 08:08:43;;;;;;;13.03;6.20;;;;;;;5.94;66.49;100671.13;1714842;82;21185;-68
2021/04/04 08:11:26;;;;;;;10.03;5.50;;;;;;;5.82;66.48;100666.79;1768532;80;21240;-66
2021/04/04 08:14:05;;;;;;;11.20;5.83;;;;;;;5.98;65.99;100663.89;1798018;77;21218;-68
2021/04/04 08:16:49;;;;;;;12.30;6.05;;;;;;;6.08;66.12;100659.16;1804114;77;22163;-67
2021/04/04 08:19:14;;;;;;;12.40;6.28;;;;;;;6.14;65.45;100664.89;1766269;79;21205;-68
2021/04/04 08:22:02;;;;;;;12.30;6.20;;;;;;;6.07;65.45;100660.11;1761997;79;22421;-67
2021/04/04 08:24:48;;;;;;;15.40;6.65;;;;;;;6.02;65.45;100660.11;1740232;80;21213;-68
2021/04/04 08:27:28;;;;;;;9.25;5.10;;;;;;;6.22;65.07;100661.24;1748620;80;21216;-68
2021/04/04 08:29:59;;;;;;;11.03;5.15;;;;;;;6.21;64.20;100667.42;1743642;79;21272;-68
2021/04/04 08:32:36;;;;;;;10.60;4.97;;;;;;;6.08;63.45;100662.27;1743746;80;21255;-69
2021/04/04 08:35:02;;;;;;;12.55;5.45;;;;;;;6.22;63.17;100652.06;1740349;80;21224;-70
2021/04/04 08:37:35;;;;;;;12.10;5.87;;;;;;;6.39;62.62;100650.30;1746241;79;21179;-70
2021/04/04 08:40:04;;;;;;;11.70;5.90;;;;;;;6.38;63.08;100652.55;1745482;79;22480;-70
2021/04/04 08:42:30;;;;;;;12.58;6.05;;;;;;;6.35;63.09;100646.23;1748058;80;21339;-69
2021/04/04 08:45:07;;;;;;;12.37;5.90;;;;;;;6.25;62.92;100639.55;1752599;80;23592;-68
2021/04/04 08:47:34;;;;;;;;;;;;;;;6.35;61.97;100643.61;1775567;79;21591;-68
2021/04/04 08:50:03;;;;;;;11.18;4.85;;;;;;;6.44;62.17;100648.16;1734417;80;20543;-68
2021/04/04 08:52:35;;;;;;;9.43;5.10;;;;;;;6.45;60.92;100642.45;1752011;80;21227;-69
2021/04/04 08:55:01;;;;;;;9.80;5.40;;;;;;;6.56;60.48;100641.14;1795366;77;22731;-69
2021/04/04 08:57:36;;;;;;;10.03;5.80;;;;;;;6.88;60.22;100626.47;1759535;77;22588;-68
2021/04/04 09:00:06;;;;;;;9.80;5.72;;;;;;;7.02;60.09;100618.33;1794660;77;21516;-70
2021/04/04 09:02:35;;;;;;;9.13;5.83;;;;;;;7.09;59.77;100619.52;1759126;79;21195;-69
2021/04/04 09:05:05;;;;;;;11.60;5.45;;;;;;;7.22;59.71;100615.92;1705572;80;21522;-70
2021/04/04 09:07:34;;;;;;;17.05;6.25;;;;;;;7.33;57.76;100613.25;1768869;77;21832;-70
2021/04/04 09:10:00;;;;;;;10.75;6.10;;;;;;;7.16;57.98;100620.72;1799191;77;21471;-70
2021/04/04 09:12:32;;;;;;;11.13;5.80;;;;;;;7.22;57.71;100615.92;1794274;77;23836;-71
2021/04/04 09:15:04;;;;;;;11.00;5.85;;;;;;;7.24;57.79;100612.68;1715515;80;21194;-70
2021/04/04 09:17:30;;;;;;;9.30;4.90;;;;;;;7.09;57.35;100616.89;1721914;79;21179;-70
2021/04/04 09:20:00;;;;;;;10.03;4.33;;;;;;;7.23;54.97;100618.42;1770161;79;21958;-69
2021/04/04 09:22:26;;;;;;;7.55;4.50;;;;;;;7.33;53.59;100621.14;1766453;79;21177;-69
2021/04/04 09:25:11;;;;;;;9.43;5.07;;;;;;;7.44;52.86;100611.93;1767947;79;23751;-69
2021/04/04 09:27:42;;;;;;;9.35;5.05;;;;;;;7.80;52.49;100611.19;1721587;81;21159;-69
2021/04/04 09:30:33;;;;;;;9.88;5.42;;;;;;;7.79;52.96;100613.94;1733230;82;21204;-69
2021/04/04 09:32:58;;;;;;;12.03;5.95;;;;;;;7.69;54.11;100613.84;1770777;79;21141;-69
2021/04/04 09:35:24;;;;;;;10.20;5.42;;;;;;;7.78;53.91;100605.20;1749147;80;21227;-67
2021/04/04 09:37:50;;;;;;;11.20;5.40;;;;;;;7.80;53.81;100611.19;1767941;80;23906;-69
2021/04/04 09:40:18;;;;;;;9.33;5.35;;;;;;;7.90;52.49;100606.81;1747302;80;21609;-68
2021/04/04 09:42:44;;;;;;;8.25;4.58;;;;;;;7.59;52.76;100612.95;1726270;81;21509;-68
2021/04/04 09:45:19;;;;;;;7.12;4.60;;;;;;;7.60;52.09;100609.34;1720694;81;21208;-69
2021/04/04 09:47:45;;;;;;;7.37;4.17;;;;;;;7.63;51.63;100599.89;1720611;82;21699;-69
2021/04/04 09:50:21;;;;;;;9.47;4.53;;;;;;;7.77;51.20;100595.66;1775251;80;21187;-69
2021/04/04 09:52:47;;;;;;;9.23;4.12;;;;;;;7.67;51.35;100596.88;1716925;82;21613;-69
2021/04/04 09:55:18;;;;;;;8.40;4.22;;;;;;;7.63;51.13;100590.69;1760301;80;26837;-69
2021/04/04 09:57:51;;;;;;;7.90;4.67;;;;;;;7.81;50.50;100589.17;1749033;81;21641;-68
2021/04/04 10:00:23;;;;;;;6.70;4.03;;;;;;;8.00;50.10;100590.27;1746895;81;21508;-68
2021/04/04 10:02:49;;;;;;;7.65;4.20;;;;;;;8.01;48.88;100590.14;1754161;81;21602;-70
2021/04/04 10:05:34;;;;;;;7.12;4.30;;;;;;;8.13;48.61;100583.02;1751618;81;21619;-67
2021/04/04 10:08:22;;;;;;;7.33;3.87;;;;;;;8.08;49.24;100585.22;1752422;81;21223;-68
2021/04/04 10:10:53;;;;;;;7.22;4.10;;;;;;;8.10;49.33;100580.66;1716646;81;21303;-69
2021/04/04 10:13:26;;;;;;;7.30;4.75;;;;;;;8.27;48.27;100581.86;1749947;79;21442;-67
2021/04/04 10:15:52;;;;;;;8.20;5.03;;;;;;;8.57;48.57;100570.52;1759402;79;21655;-69
2021/04/04 10:18:20;;;;;;;6.80;3.92;;;;;;;8.76;47.95;100572.41;1769847;79;21209;-68
2021/04/04 10:20:52;;;;;;;;;;;;;;;8.49;47.86;100570.84;1771764;79;21175;-67
2021/04/04 10:23:19;;;;;;;5.70;3.12;;;;;;;8.79;46.31;100566.02;1751961;80;21648;-68
2021/04/04 10:26:03;;;;;;;4.25;2.40;;;;;;;8.75;45.53;100550.16;1805612;77;21207;-68
2021/04/04 10:28:48;;;;;;;5.22;2.80;;;;;;;8.43;43.30;100564.27;1787327;77;21182;-68
2021/04/04 10:31:16;;;;;;;5.15;2.98;;;;;;;8.66;44.34;100554.91;1788212;77;21704;-68
2021/04/04 10:33:43;;;;;;;5.53;3.33;;;;;;;8.38;44.41;100562.52;1784057;77;21148;-68
2021/04/04 10:36:17;;;;;;;6.83;3.83;;;;;;;8.32;44.83;100556.47;1791775;77;21196;-68
2021/04/04 10:38:43;;;;;;;5.58;3.22;;;;;;;8.80;44.14;100550.08;1799621;77;21143;-67
2021/04/04 10:43:44;;;;;;;6.45;2.75;;;;;;;8.97;42.61;100538.06;1831617;77;28205;-67
2021/04/04 10:46:14;;;;;;;5.40;3.00;;;;;;;9.07;42.34;100545.14;1789157;78;21515;-68
2021/04/04 10:48:42;;;;;;;4.30;2.70;;;;;;;9.16;41.92;100541.69;1789429;78;22083;-69
2021/04/04 10:51:11;;;;;;;4.87;2.65;;;;;;;9.09;41.11;100552.42;1793904;78;21115;-70
2021/04/04 10:53:37;;;;;;;4.35;2.52;;;;;;;9.20;41.47;100528.59;1789721;78;20982;-69
2021/04/04 10:56:04;;;;;;;4.12;2.47;;;;;;;9.20;40.56;100531.70;1789966;78;21127;-71
2021/04/04 10:58:30;;;;;;;6.33;2.60;;;;;;;9.57;40.79;100510.77;1789248;78;21083;-69
2021/04/04 11:00:58;;;;;;;6.22;2.45;;;;;;;9.48;39.92;100513.75;1789959;78;21822;-69
2021/04/04 11:03:24;;;;;;;4.90;2.50;;;;;;;9.49;40.52;100515.42;1785672;78;21409;-69
2021/04/04 11:05:50;;;;;;;4.90;2.55;;;;;;;9.17;41.29;100518.34;1790383;78;25360;-70
2021/04/04 11:08:19;;;;;;;4.72;2.40;;;;;;;8.89;41.38;100525.24;1788394;78;28395;-68
2021/04/04 11:10:45;;;;;;;3.70;1.98;;;;;;;9.15;41.10;100513.20;1790873;78;21195;-67
2021/04/04 11:13:20;;;;;;;3.40;1.98;;;;;;;9.18;40.66;100516.02;1791353;78;21182;-68
2021/04/04 11:16:00;;;;;;;3.65;1.92;;;;;;;9.51;40.70;100498.14;1787692;78;21180;-68
2021/04/04 11:18:41;;;;;;;4.03;2.10;;;;;;;9.33;39.27;100505.91;1790950;78;21189;-67
2021/04/04 11:21:12;;;;;;;4.10;1.95;;;;;;;9.37;39.21;100497.23;1789556;78;21690;-70
2021/04/04 11:23:37;;;;;;;3.02;1.70;;;;;;;9.47;39.41;100507.30;1788676;78;21169;-69
2021/04/04 11:29:19;;;;;;;3.22;1.90;;;;;;;9.62;39.40;100487.44;1756340;78;92033;-94
2021/04/04 11:31:52;;;;;;;3.95;1.72;;;;;;;9.37;39.30;100485.38;1741461;79;21208;-89
2021/04/04 11:34:32;;;;;;;4.55;1.95;;;;;;;9.53;39.24;100477.73;1743422;80;21142;-94
2021/04/04 11:37:06;;;;;;;3.12;1.60;;;;;;;9.54;39.75;100487.31;1679279;83;21210;-87
2021/04/04 11:39:32;;;;;;;2.87;1.60;;;;;;;9.70;39.37;100481.45;1679050;83;21255;-89
2021/04/04 11:42:01;;;;;;;3.98;1.70;;;;;;;9.86;38.39;100482.17;1698191;83;21597;-88
2021/04/04 11:44:41;;;;;;;4.00;1.90;;;;;;;9.81;38.25;100472.55;1700996;81;21302;-93
2021/04/04 11:47:21;;;;;;;4.45;1.95;;;;;;;9.65;39.16;100467.37;1701634;81;21159;-93
2021/04/04 11:49:54;;;;;;;3.85;1.80;;;;;;;9.74;39.58;100471.44;1663970;85;21212;-93
2021/04/04 11:52:44;;;;;;;3.22;1.80;;;;;;;9.73;39.70;100493.53;1681671;83;21242;-95
2021/04/04 11:55:11;;;;;;;4.00;1.80;;;;;;;9.55;40.28;100467.87;1681085;84;21574;-85
2021/04/04 11:57:38;;;;;;;3.62;2.00;;;;;;;9.69;39.91;100462.17;1673064;83;21176;-86